sensor_id;sensor_type;location;lat;lon;timestamp;P1;durP1;ratioP1;P2;durP2;ratioP2
21258;SDS011;10787;53.364;-1.480;2024-01-25T00:02:33;29.70;;;5.10;;
21258;SDS011;10787;53.364;-1.480;2024-01-25T00:05:17;27.80;;;5.17;;
21258;SDS011;10787;53.364;-1.480;2024-01-25T00:08:01;28.43;;;5.10;;
21258;SDS011;10787;53.364;-1.480;2024-01-25T00:10:46;27.37;;;5.27;;
21258;SDS011;10787;53.364;-1.480;2024-01-25T00:13:30;26.80;;;4.83;;
21258;SDS011;10787;53.364;-1.480;2024-01-25T00:16:15;31.47;;;5.43;;
21258;SDS011;10787;53.364;-1.480;2024-01-25T00:18:59;32.03;;;5.07;;
21258;SDS011;10787;53.364;-1.480;2024-01-25T00:21:43;32.97;;;5.43;;
21258;SDS011;10787;53.364;-1.480;2024-01-25T00:24:28;24.10;;;5.40;;
21258;SDS011;10787;53.364;-1.480;2024-01-25T00:27:13;33.50;;;5.73;;
21258;SDS011;10787;53.364;-1.480;2024-01-25T00:29:57;26.13;;;5.20;;
21258;SDS011;10787;53.364;-1.480;2024-01-25T00:32:41;33.07;;;5.37;;
21258;SDS011;10787;53.364;-1.480;2024-01-25T00:35:26;28.70;;;5.73;;
21258;SDS011;10787;53.364;-1.480;2024-01-25T00:38:10;24.17;;;5.03;;
21258;SDS011;10787;53.364;-1.480;2024-01-25T00:40:55;29.03;;;5.20;;
21258;SDS011;10787;53.364;-1.480;2024-01-25T00:43:39;32.20;;;5.37;;
21258;SDS011;10787;53.364;-1.480;2024-01-25T00:46:24;26.80;;;5.20;;
21258;SDS011;10787;53.364;-1.480;2024-01-25T00:49:09;30.00;;;5.50;;
21258;SDS011;10787;53.364;-1.480;2024-01-25T00:51:58;30.20;;;5.00;;
21258;SDS011;10787;53.364;-1.480;2024-01-25T00:54:46;26.00;;;5.17;;
21258;SDS011;10787;53.364;-1.480;2024-01-25T00:57:30;32.00;;;5.50;;
21258;SDS011;10787;53.364;-1.480;2024-01-25T01:00:15;24.53;;;4.93;;
21258;SDS011;10787;53.364;-1.480;2024-01-25T01:03:00;26.57;;;5.63;;
21258;SDS011;10787;53.364;-1.480;2024-01-25T01:05:48;33.83;;;5.80;;
21258;SDS011;10787;53.364;-1.480;2024-01-25T01:08:32;26.90;;;5.90;;
21258;SDS011;10787;53.364;-1.480;2024-01-25T01:11:17;23.97;;;5.30;;
21258;SDS011;10787;53.364;-1.480;2024-01-25T01:14:02;27.57;;;5.10;;
21258;SDS011;10787;53.364;-1.480;2024-01-25T01:16:46;27.53;;;4.90;;
21258;SDS011;10787;53.364;-1.480;2024-01-25T01:19:31;27.67;;;4.77;;
21258;SDS011;10787;53.364;-1.480;2024-01-25T01:22:15;27.53;;;4.60;;
21258;SDS011;10787;53.364;-1.480;2024-01-25T01:24:59;32.10;;;6.23;;
21258;SDS011;10787;53.364;-1.480;2024-01-25T01:27:43;28.07;;;5.17;;
21258;SDS011;10787;53.364;-1.480;2024-01-25T01:30:28;26.83;;;5.37;;
21258;SDS011;10787;53.364;-1.480;2024-01-25T01:33:12;24.53;;;5.57;;
21258;SDS011;10787;53.364;-1.480;2024-01-25T01:35:57;30.37;;;5.27;;
21258;SDS011;10787;53.364;-1.480;2024-01-25T01:38:40;32.43;;;5.20;;
21258;SDS011;10787;53.364;-1.480;2024-01-25T01:41:25;31.97;;;5.17;;
21258;SDS011;10787;53.364;-1.480;2024-01-25T01:44:10;32.00;;;5.00;;
21258;SDS011;10787;53.364;-1.480;2024-01-25T01:46:54;30.07;;;5.20;;
21258;SDS011;10787;53.364;-1.480;2024-01-25T01:49:39;24.53;;;4.93;;
21258;SDS011;10787;53.364;-1.480;2024-01-25T01:52:23;23.80;;;4.77;;
21258;SDS011;10787;53.364;-1.480;2024-01-25T01:55:07;26.90;;;4.80;;
21258;SDS011;10787;53.364;-1.480;2024-01-25T01:58:05;29.07;;;5.10;;
21258;SDS011;10787;53.364;-1.480;2024-01-25T02:00:50;34.40;;;5.40;;
21258;SDS011;10787;53.364;-1.480;2024-01-25T02:03:34;32.70;;;5.73;;
21258;SDS011;10787;53.364;-1.480;2024-01-25T02:06:19;23.23;;;4.90;;
21258;SDS011;10787;53.364;-1.480;2024-01-25T02:09:03;23.57;;;4.50;;
21258;SDS011;10787;53.364;-1.480;2024-01-25T02:11:58;26.30;;;4.63;;
21258;SDS011;10787;53.364;-1.480;2024-01-25T02:14:45;27.43;;;5.23;;
21258;SDS011;10787;53.364;-1.480;2024-01-25T02:17:32;23.37;;;5.03;;
21258;SDS011;10787;53.364;-1.480;2024-01-25T02:20:17;22.40;;;4.97;;
21258;SDS011;10787;53.364;-1.480;2024-01-25T02:23:02;27.20;;;5.13;;
21258;SDS011;10787;53.364;-1.480;2024-01-25T02:25:47;28.10;;;4.90;;
21258;SDS011;10787;53.364;-1.480;2024-01-25T02:28:31;23.30;;;5.00;;
21258;SDS011;10787;53.364;-1.480;2024-01-25T02:31:16;25.50;;;5.37;;
21258;SDS011;10787;53.364;-1.480;2024-01-25T02:34:00;26.20;;;4.83;;
21258;SDS011;10787;53.364;-1.480;2024-01-25T02:36:44;29.53;;;5.20;;
21258;SDS011;10787;53.364;-1.480;2024-01-25T02:39:29;27.80;;;4.87;;
21258;SDS011;10787;53.364;-1.480;2024-01-25T02:42:13;29.73;;;4.80;;
21258;SDS011;10787;53.364;-1.480;2024-01-25T02:45:00;27.53;;;5.63;;
21258;SDS011;10787;53.364;-1.480;2024-01-25T02:47:44;32.43;;;5.63;;
21258;SDS011;10787;53.364;-1.480;2024-01-25T02:50:28;31.10;;;5.73;;
21258;SDS011;10787;53.364;-1.480;2024-01-25T02:53:13;28.90;;;5.43;;
21258;SDS011;10787;53.364;-1.480;2024-01-25T02:55:57;33.97;;;6.10;;
21258;SDS011;10787;53.364;-1.480;2024-01-25T02:58:42;36.20;;;6.13;;
21258;SDS011;10787;53.364;-1.480;2024-01-25T03:01:27;22.97;;;5.33;;
21258;SDS011;10787;53.364;-1.480;2024-01-25T03:04:11;30.50;;;6.03;;
21258;SDS011;10787;53.364;-1.480;2024-01-25T03:06:56;34.33;;;6.40;;
21258;SDS011;10787;53.364;-1.480;2024-01-25T03:09:40;25.60;;;5.10;;
21258;SDS011;10787;53.364;-1.480;2024-01-25T03:12:24;26.93;;;6.00;;
21258;SDS011;10787;53.364;-1.480;2024-01-25T03:15:10;29.73;;;5.90;;
21258;SDS011;10787;53.364;-1.480;2024-01-25T03:17:55;24.53;;;5.37;;
21258;SDS011;10787;53.364;-1.480;2024-01-25T03:20:39;32.47;;;6.20;;
21258;SDS011;10787;53.364;-1.480;2024-01-25T03:23:24;26.33;;;5.30;;
21258;SDS011;10787;53.364;-1.480;2024-01-25T03:26:08;24.13;;;5.83;;
21258;SDS011;10787;53.364;-1.480;2024-01-25T03:28:52;35.23;;;6.43;;
21258;SDS011;10787;53.364;-1.480;2024-01-25T03:31:37;28.67;;;6.17;;
21258;SDS011;10787;53.364;-1.480;2024-01-25T03:34:21;34.13;;;6.30;;
21258;SDS011;10787;53.364;-1.480;2024-01-25T03:37:05;32.30;;;5.73;;
21258;SDS011;10787;53.364;-1.480;2024-01-25T03:39:50;34.47;;;6.33;;
21258;SDS011;10787;53.364;-1.480;2024-01-25T03:42:34;35.07;;;7.27;;
21258;SDS011;10787;53.364;-1.480;2024-01-25T03:45:18;32.97;;;7.00;;
21258;SDS011;10787;53.364;-1.480;2024-01-25T03:48:02;35.40;;;7.70;;
21258;SDS011;10787;53.364;-1.480;2024-01-25T03:50:47;31.13;;;8.00;;
21258;SDS011;10787;53.364;-1.480;2024-01-25T03:53:31;37.73;;;9.10;;
21258;SDS011;10787;53.364;-1.480;2024-01-25T03:56:16;38.80;;;7.27;;
21258;SDS011;10787;53.364;-1.480;2024-01-25T03:59:03;34.50;;;7.37;;
21258;SDS011;10787;53.364;-1.480;2024-01-25T04:01:48;30.90;;;7.93;;
21258;SDS011;10787;53.364;-1.480;2024-01-25T04:04:33;37.70;;;8.17;;
21258;SDS011;10787;53.364;-1.480;2024-01-25T04:07:17;36.60;;;8.10;;
21258;SDS011;10787;53.364;-1.480;2024-01-25T04:10:01;37.40;;;7.53;;
21258;SDS011;10787;53.364;-1.480;2024-01-25T04:12:46;34.93;;;7.90;;
21258;SDS011;10787;53.364;-1.480;2024-01-25T04:15:30;33.60;;;8.03;;
21258;SDS011;10787;53.364;-1.480;2024-01-25T04:18:14;35.87;;;8.73;;
21258;SDS011;10787;53.364;-1.480;2024-01-25T04:21:00;35.03;;;8.53;;
21258;SDS011;10787;53.364;-1.480;2024-01-25T04:23:44;37.63;;;8.07;;
21258;SDS011;10787;53.364;-1.480;2024-01-25T04:26:28;32.73;;;8.13;;
21258;SDS011;10787;53.364;-1.480;2024-01-25T04:29:13;41.33;;;8.90;;
21258;SDS011;10787;53.364;-1.480;2024-01-25T04:31:57;32.83;;;8.73;;
21258;SDS011;10787;53.364;-1.480;2024-01-25T04:34:43;34.90;;;9.87;;
21258;SDS011;10787;53.364;-1.480;2024-01-25T04:37:28;36.53;;;9.90;;
21258;SDS011;10787;53.364;-1.480;2024-01-25T04:40:12;41.13;;;10.50;;
21258;SDS011;10787;53.364;-1.480;2024-01-25T04:42:56;42.00;;;10.63;;
21258;SDS011;10787;53.364;-1.480;2024-01-25T04:45:42;38.30;;;9.87;;
21258;SDS011;10787;53.364;-1.480;2024-01-25T04:48:26;42.70;;;10.20;;
21258;SDS011;10787;53.364;-1.480;2024-01-25T04:51:17;41.80;;;10.13;;
21258;SDS011;10787;53.364;-1.480;2024-01-25T04:54:02;36.10;;;10.03;;
21258;SDS011;10787;53.364;-1.480;2024-01-25T04:56:46;43.40;;;10.20;;
21258;SDS011;10787;53.364;-1.480;2024-01-25T04:59:30;30.70;;;9.03;;
21258;SDS011;10787;53.364;-1.480;2024-01-25T05:02:14;40.30;;;9.53;;
21258;SDS011;10787;53.364;-1.480;2024-01-25T05:04:59;41.33;;;9.33;;
21258;SDS011;10787;53.364;-1.480;2024-01-25T05:07:43;33.07;;;8.80;;
21258;SDS011;10787;53.364;-1.480;2024-01-25T05:10:27;33.50;;;9.23;;
21258;SDS011;10787;53.364;-1.480;2024-01-25T05:13:11;38.73;;;9.33;;
21258;SDS011;10787;53.364;-1.480;2024-01-25T05:15:56;36.17;;;10.20;;
21258;SDS011;10787;53.364;-1.480;2024-01-25T05:18:40;33.67;;;9.43;;
21258;SDS011;10787;53.364;-1.480;2024-01-25T05:21:25;31.40;;;9.00;;
21258;SDS011;10787;53.364;-1.480;2024-01-25T05:24:09;39.27;;;10.43;;
21258;SDS011;10787;53.364;-1.480;2024-01-25T05:26:54;42.00;;;10.50;;
21258;SDS011;10787;53.364;-1.480;2024-01-25T05:29:39;41.70;;;10.10;;
21258;SDS011;10787;53.364;-1.480;2024-01-25T05:32:24;40.93;;;10.27;;
21258;SDS011;10787;53.364;-1.480;2024-01-25T05:35:08;34.87;;;10.00;;
21258;SDS011;10787;53.364;-1.480;2024-01-25T05:37:53;39.63;;;9.60;;
21258;SDS011;10787;53.364;-1.480;2024-01-25T05:40:37;36.80;;;10.37;;
21258;SDS011;10787;53.364;-1.480;2024-01-25T05:43:22;38.47;;;9.90;;
21258;SDS011;10787;53.364;-1.480;2024-01-25T05:46:07;39.83;;;11.17;;
21258;SDS011;10787;53.364;-1.480;2024-01-25T05:48:53;38.93;;;10.90;;
21258;SDS011;10787;53.364;-1.480;2024-01-25T05:51:37;48.37;;;11.23;;
21258;SDS011;10787;53.364;-1.480;2024-01-25T05:54:22;33.23;;;10.77;;
21258;SDS011;10787;53.364;-1.480;2024-01-25T05:57:06;33.33;;;9.80;;
21258;SDS011;10787;53.364;-1.480;2024-01-25T05:59:51;43.77;;;10.73;;
21258;SDS011;10787;53.364;-1.480;2024-01-25T06:02:35;50.90;;;11.43;;
21258;SDS011;10787;53.364;-1.480;2024-01-25T06:05:20;34.40;;;10.57;;
21258;SDS011;10787;53.364;-1.480;2024-01-25T06:08:05;41.33;;;11.23;;
21258;SDS011;10787;53.364;-1.480;2024-01-25T06:10:49;34.87;;;10.87;;
21258;SDS011;10787;53.364;-1.480;2024-01-25T06:13:33;40.93;;;10.83;;
21258;SDS011;10787;53.364;-1.480;2024-01-25T06:16:18;32.77;;;10.23;;
21258;SDS011;10787;53.364;-1.480;2024-01-25T06:19:03;32.90;;;10.57;;
21258;SDS011;10787;53.364;-1.480;2024-01-25T06:21:47;32.53;;;10.20;;
21258;SDS011;10787;53.364;-1.480;2024-01-25T06:24:31;40.43;;;11.57;;
21258;SDS011;10787;53.364;-1.480;2024-01-25T06:27:16;35.83;;;9.73;;
21258;SDS011;10787;53.364;-1.480;2024-01-25T06:30:00;42.67;;;11.53;;
21258;SDS011;10787;53.364;-1.480;2024-01-25T06:32:44;35.90;;;9.90;;
21258;SDS011;10787;53.364;-1.480;2024-01-25T06:35:29;39.80;;;10.03;;
21258;SDS011;10787;53.364;-1.480;2024-01-25T06:38:14;30.73;;;9.90;;
21258;SDS011;10787;53.364;-1.480;2024-01-25T06:40:58;32.20;;;10.77;;
21258;SDS011;10787;53.364;-1.480;2024-01-25T06:43:43;39.40;;;9.57;;
21258;SDS011;10787;53.364;-1.480;2024-01-25T06:46:28;35.03;;;10.40;;
21258;SDS011;10787;53.364;-1.480;2024-01-25T06:49:12;38.23;;;10.57;;
21258;SDS011;10787;53.364;-1.480;2024-01-25T06:51:57;42.17;;;11.20;;
21258;SDS011;10787;53.364;-1.480;2024-01-25T06:54:41;42.73;;;11.20;;
21258;SDS011;10787;53.364;-1.480;2024-01-25T06:57:25;32.80;;;10.57;;
21258;SDS011;10787;53.364;-1.480;2024-01-25T07:00:09;36.07;;;10.70;;
21258;SDS011;10787;53.364;-1.480;2024-01-25T07:02:56;38.63;;;10.77;;
21258;SDS011;10787;53.364;-1.480;2024-01-25T07:05:40;40.53;;;11.97;;
21258;SDS011;10787;53.364;-1.480;2024-01-25T07:08:25;40.87;;;12.43;;
21258;SDS011;10787;53.364;-1.480;2024-01-25T07:11:09;53.57;;;16.77;;
21258;SDS011;10787;53.364;-1.480;2024-01-25T07:13:53;47.80;;;13.47;;
21258;SDS011;10787;53.364;-1.480;2024-01-25T07:16:40;39.93;;;12.73;;
21258;SDS011;10787;53.364;-1.480;2024-01-25T07:19:24;39.17;;;11.70;;
21258;SDS011;10787;53.364;-1.480;2024-01-25T07:22:09;44.07;;;12.00;;
21258;SDS011;10787;53.364;-1.480;2024-01-25T07:24:55;44.47;;;11.47;;
21258;SDS011;10787;53.364;-1.480;2024-01-25T07:27:39;37.70;;;10.60;;
21258;SDS011;10787;53.364;-1.480;2024-01-25T07:30:28;36.77;;;11.23;;
21258;SDS011;10787;53.364;-1.480;2024-01-25T07:33:13;47.87;;;12.40;;
21258;SDS011;10787;53.364;-1.480;2024-01-25T07:35:57;40.90;;;11.80;;
21258;SDS011;10787;53.364;-1.480;2024-01-25T07:38:42;42.03;;;13.37;;
21258;SDS011;10787;53.364;-1.480;2024-01-25T07:41:26;64.57;;;15.13;;
21258;SDS011;10787;53.364;-1.480;2024-01-25T07:44:10;46.50;;;15.17;;
21258;SDS011;10787;53.364;-1.480;2024-01-25T07:46:56;45.07;;;14.20;;
21258;SDS011;10787;53.364;-1.480;2024-01-25T07:49:40;50.30;;;15.07;;
21258;SDS011;10787;53.364;-1.480;2024-01-25T07:52:25;52.70;;;14.90;;
21258;SDS011;10787;53.364;-1.480;2024-01-25T07:55:09;47.73;;;14.67;;
21258;SDS011;10787;53.364;-1.480;2024-01-25T07:57:54;56.93;;;14.43;;
21258;SDS011;10787;53.364;-1.480;2024-01-25T08:00:38;44.63;;;14.63;;
21258;SDS011;10787;53.364;-1.480;2024-01-25T08:03:23;42.40;;;14.73;;
21258;SDS011;10787;53.364;-1.480;2024-01-25T08:06:08;43.93;;;14.20;;
21258;SDS011;10787;53.364;-1.480;2024-01-25T08:08:52;47.43;;;14.40;;
21258;SDS011;10787;53.364;-1.480;2024-01-25T08:11:36;41.63;;;13.73;;
21258;SDS011;10787;53.364;-1.480;2024-01-25T08:14:21;41.03;;;14.10;;
21258;SDS011;10787;53.364;-1.480;2024-01-25T08:17:05;40.90;;;13.00;;
21258;SDS011;10787;53.364;-1.480;2024-01-25T08:19:50;45.33;;;14.30;;
21258;SDS011;10787;53.364;-1.480;2024-01-25T08:22:34;38.00;;;12.87;;
21258;SDS011;10787;53.364;-1.480;2024-01-25T08:25:18;39.93;;;13.33;;
21258;SDS011;10787;53.364;-1.480;2024-01-25T08:28:04;129.90;;;18.23;;
21258;SDS011;10787;53.364;-1.480;2024-01-25T08:30:48;35.87;;;12.93;;
21258;SDS011;10787;53.364;-1.480;2024-01-25T08:33:33;34.97;;;13.00;;
21258;SDS011;10787;53.364;-1.480;2024-01-25T08:36:17;37.03;;;12.97;;
21258;SDS011;10787;53.364;-1.480;2024-01-25T08:39:02;35.10;;;12.37;;
21258;SDS011;10787;53.364;-1.480;2024-01-25T08:41:48;27.60;;;12.30;;
21258;SDS011;10787;53.364;-1.480;2024-01-25T08:44:34;26.50;;;11.23;;
21258;SDS011;10787;53.364;-1.480;2024-01-25T08:47:18;29.27;;;11.40;;
21258;SDS011;10787;53.364;-1.480;2024-01-25T08:50:03;27.27;;;10.73;;
21258;SDS011;10787;53.364;-1.480;2024-01-25T08:52:50;28.77;;;11.23;;
21258;SDS011;10787;53.364;-1.480;2024-01-25T08:55:34;24.77;;;10.10;;
21258;SDS011;10787;53.364;-1.480;2024-01-25T08:58:18;25.83;;;9.90;;
21258;SDS011;10787;53.364;-1.480;2024-01-25T09:01:02;21.77;;;9.03;;
21258;SDS011;10787;53.364;-1.480;2024-01-25T09:03:47;20.03;;;9.40;;
21258;SDS011;10787;53.364;-1.480;2024-01-25T09:06:31;20.57;;;9.70;;
21258;SDS011;10787;53.364;-1.480;2024-01-25T09:09:15;24.07;;;9.73;;
21258;SDS011;10787;53.364;-1.480;2024-01-25T09:12:00;37.77;;;11.30;;
21258;SDS011;10787;53.364;-1.480;2024-01-25T09:14:44;19.90;;;9.73;;
21258;SDS011;10787;53.364;-1.480;2024-01-25T09:17:28;24.90;;;10.17;;
21258;SDS011;10787;53.364;-1.480;2024-01-25T09:20:12;21.73;;;9.73;;
21258;SDS011;10787;53.364;-1.480;2024-01-25T09:22:56;22.00;;;9.33;;
21258;SDS011;10787;53.364;-1.480;2024-01-25T09:25:41;24.57;;;10.33;;
21258;SDS011;10787;53.364;-1.480;2024-01-25T09:28:25;22.30;;;10.23;;
21258;SDS011;10787;53.364;-1.480;2024-01-25T09:31:09;22.37;;;9.93;;
21258;SDS011;10787;53.364;-1.480;2024-01-25T09:33:55;22.17;;;10.50;;
21258;SDS011;10787;53.364;-1.480;2024-01-25T09:36:39;23.43;;;10.97;;
21258;SDS011;10787;53.364;-1.480;2024-01-25T09:39:23;20.53;;;10.07;;
21258;SDS011;10787;53.364;-1.480;2024-01-25T09:42:07;20.80;;;9.93;;
21258;SDS011;10787;53.364;-1.480;2024-01-25T09:44:52;21.70;;;10.10;;
21258;SDS011;10787;53.364;-1.480;2024-01-25T09:47:38;20.67;;;9.43;;
21258;SDS011;10787;53.364;-1.480;2024-01-25T09:50:22;17.83;;;9.47;;
21258;SDS011;10787;53.364;-1.480;2024-01-25T09:53:06;20.70;;;9.40;;
21258;SDS011;10787;53.364;-1.480;2024-01-25T09:56:03;20.17;;;8.60;;
21258;SDS011;10787;53.364;-1.480;2024-01-25T09:58:53;23.77;;;9.63;;
21258;SDS011;10787;53.364;-1.480;2024-01-25T10:01:38;18.80;;;9.87;;
21258;SDS011;10787;53.364;-1.480;2024-01-25T10:04:22;17.47;;;8.93;;
21258;SDS011;10787;53.364;-1.480;2024-01-25T10:07:08;19.67;;;9.00;;
21258;SDS011;10787;53.364;-1.480;2024-01-25T10:09:52;20.93;;;9.37;;
21258;SDS011;10787;53.364;-1.480;2024-01-25T10:12:36;18.43;;;9.33;;
21258;SDS011;10787;53.364;-1.480;2024-01-25T10:15:23;22.73;;;9.87;;
21258;SDS011;10787;53.364;-1.480;2024-01-25T10:18:08;17.90;;;9.50;;
21258;SDS011;10787;53.364;-1.480;2024-01-25T10:20:56;18.73;;;9.50;;
21258;SDS011;10787;53.364;-1.480;2024-01-25T10:23:40;17.90;;;9.30;;
21258;SDS011;10787;53.364;-1.480;2024-01-25T10:26:27;17.20;;;9.00;;
21258;SDS011;10787;53.364;-1.480;2024-01-25T10:29:12;16.63;;;9.23;;
21258;SDS011;10787;53.364;-1.480;2024-01-25T10:31:58;15.33;;;8.90;;
21258;SDS011;10787;53.364;-1.480;2024-01-25T10:34:43;18.13;;;9.33;;
21258;SDS011;10787;53.364;-1.480;2024-01-25T10:37:29;17.40;;;9.40;;
21258;SDS011;10787;53.364;-1.480;2024-01-25T10:40:15;18.20;;;9.57;;
21258;SDS011;10787;53.364;-1.480;2024-01-25T10:43:05;17.07;;;9.07;;
21258;SDS011;10787;53.364;-1.480;2024-01-25T10:45:50;17.57;;;9.23;;
21258;SDS011;10787;53.364;-1.480;2024-01-25T10:48:39;18.13;;;9.37;;
21258;SDS011;10787;53.364;-1.480;2024-01-25T10:51:23;17.30;;;9.27;;
21258;SDS011;10787;53.364;-1.480;2024-01-25T10:54:08;16.60;;;8.93;;
21258;SDS011;10787;53.364;-1.480;2024-01-25T10:56:54;16.87;;;8.87;;
21258;SDS011;10787;53.364;-1.480;2024-01-25T10:59:39;16.13;;;8.67;;
21258;SDS011;10787;53.364;-1.480;2024-01-25T11:02:23;13.03;;;8.23;;
21258;SDS011;10787;53.364;-1.480;2024-01-25T11:05:09;15.07;;;7.73;;
21258;SDS011;10787;53.364;-1.480;2024-01-25T11:07:55;13.17;;;7.10;;
21258;SDS011;10787;53.364;-1.480;2024-01-25T11:10:40;12.97;;;7.63;;
21258;SDS011;10787;53.364;-1.480;2024-01-25T11:13:26;12.40;;;7.37;;
21258;SDS011;10787;53.364;-1.480;2024-01-25T11:16:11;16.30;;;8.43;;
21258;SDS011;10787;53.364;-1.480;2024-01-25T11:19:00;14.17;;;7.30;;
21258;SDS011;10787;53.364;-1.480;2024-01-25T11:21:50;12.90;;;7.60;;
21258;SDS011;10787;53.364;-1.480;2024-01-25T11:24:37;11.87;;;7.17;;
21258;SDS011;10787;53.364;-1.480;2024-01-25T11:27:22;12.40;;;7.03;;
21258;SDS011;10787;53.364;-1.480;2024-01-25T11:30:07;13.90;;;7.37;;
21258;SDS011;10787;53.364;-1.480;2024-01-25T11:32:53;11.53;;;6.23;;
21258;SDS011;10787;53.364;-1.480;2024-01-25T11:35:37;11.83;;;6.87;;
21258;SDS011;10787;53.364;-1.480;2024-01-25T11:38:21;16.13;;;7.47;;
21258;SDS011;10787;53.364;-1.480;2024-01-25T11:41:06;13.13;;;7.23;;
21258;SDS011;10787;53.364;-1.480;2024-01-25T11:43:50;13.30;;;7.27;;
21258;SDS011;10787;53.364;-1.480;2024-01-25T11:46:34;10.70;;;6.80;;
21258;SDS011;10787;53.364;-1.480;2024-01-25T11:49:19;13.03;;;7.63;;
21258;SDS011;10787;53.364;-1.480;2024-01-25T11:52:03;11.27;;;7.03;;
21258;SDS011;10787;53.364;-1.480;2024-01-25T11:54:48;10.50;;;6.37;;
21258;SDS011;10787;53.364;-1.480;2024-01-25T11:57:42;10.07;;;6.20;;
21258;SDS011;10787;53.364;-1.480;2024-01-25T12:00:27;9.33;;;6.27;;
21258;SDS011;10787;53.364;-1.480;2024-01-25T12:03:11;9.67;;;5.93;;
21258;SDS011;10787;53.364;-1.480;2024-01-25T12:05:56;10.83;;;6.37;;
21258;SDS011;10787;53.364;-1.480;2024-01-25T12:08:44;9.33;;;6.40;;
21258;SDS011;10787;53.364;-1.480;2024-01-25T12:11:29;9.07;;;6.13;;
21258;SDS011;10787;53.364;-1.480;2024-01-25T12:14:14;10.03;;;6.23;;
21258;SDS011;10787;53.364;-1.480;2024-01-25T12:17:00;10.23;;;6.30;;
21258;SDS011;10787;53.364;-1.480;2024-01-25T12:19:45;11.37;;;6.20;;
21258;SDS011;10787;53.364;-1.480;2024-01-25T12:22:29;12.53;;;7.17;;
21258;SDS011;10787;53.364;-1.480;2024-01-25T12:25:14;9.87;;;6.40;;
21258;SDS011;10787;53.364;-1.480;2024-01-25T12:27:59;10.30;;;6.70;;
21258;SDS011;10787;53.364;-1.480;2024-01-25T12:30:43;10.13;;;6.57;;
21258;SDS011;10787;53.364;-1.480;2024-01-25T12:33:27;11.07;;;6.80;;
21258;SDS011;10787;53.364;-1.480;2024-01-25T12:36:12;12.30;;;6.70;;
21258;SDS011;10787;53.364;-1.480;2024-01-25T12:38:56;10.27;;;6.97;;
21258;SDS011;10787;53.364;-1.480;2024-01-25T12:41:40;11.70;;;7.50;;
21258;SDS011;10787;53.364;-1.480;2024-01-25T12:44:24;12.30;;;7.40;;
21258;SDS011;10787;53.364;-1.480;2024-01-25T12:47:09;11.40;;;7.70;;
21258;SDS011;10787;53.364;-1.480;2024-01-25T12:49:54;13.30;;;8.00;;
21258;SDS011;10787;53.364;-1.480;2024-01-25T12:52:38;11.43;;;7.27;;
21258;SDS011;10787;53.364;-1.480;2024-01-25T12:55:22;10.97;;;7.53;;
21258;SDS011;10787;53.364;-1.480;2024-01-25T12:58:06;12.73;;;7.90;;
21258;SDS011;10787;53.364;-1.480;2024-01-25T13:00:51;11.00;;;7.53;;
21258;SDS011;10787;53.364;-1.480;2024-01-25T13:03:35;10.07;;;7.57;;
21258;SDS011;10787;53.364;-1.480;2024-01-25T13:06:19;12.00;;;7.50;;
21258;SDS011;10787;53.364;-1.480;2024-01-25T13:09:03;11.50;;;7.23;;
21258;SDS011;10787;53.364;-1.480;2024-01-25T13:11:47;9.63;;;7.17;;
21258;SDS011;10787;53.364;-1.480;2024-01-25T13:14:32;11.17;;;7.17;;
21258;SDS011;10787;53.364;-1.480;2024-01-25T13:17:17;10.07;;;7.10;;
21258;SDS011;10787;53.364;-1.480;2024-01-25T13:20:03;8.57;;;7.07;;
21258;SDS011;10787;53.364;-1.480;2024-01-25T13:22:49;9.57;;;7.70;;
21258;SDS011;10787;53.364;-1.480;2024-01-25T13:25:34;12.93;;;7.90;;
21258;SDS011;10787;53.364;-1.480;2024-01-25T13:28:18;10.60;;;7.60;;
21258;SDS011;10787;53.364;-1.480;2024-01-25T13:31:01;11.43;;;7.23;;
21258;SDS011;10787;53.364;-1.480;2024-01-25T13:33:46;10.40;;;6.60;;
21258;SDS011;10787;53.364;-1.480;2024-01-25T13:36:30;9.93;;;6.70;;
21258;SDS011;10787;53.364;-1.480;2024-01-25T13:39:14;10.07;;;6.73;;
21258;SDS011;10787;53.364;-1.480;2024-01-25T13:41:58;10.83;;;6.70;;
21258;SDS011;10787;53.364;-1.480;2024-01-25T13:44:42;14.70;;;9.20;;
21258;SDS011;10787;53.364;-1.480;2024-01-25T13:47:28;12.03;;;7.00;;
21258;SDS011;10787;53.364;-1.480;2024-01-25T13:50:12;9.13;;;6.40;;
21258;SDS011;10787;53.364;-1.480;2024-01-25T13:52:57;8.00;;;6.30;;
21258;SDS011;10787;53.364;-1.480;2024-01-25T13:55:41;9.57;;;6.30;;
21258;SDS011;10787;53.364;-1.480;2024-01-25T13:58:26;9.27;;;6.33;;
21258;SDS011;10787;53.364;-1.480;2024-01-25T14:01:10;9.30;;;5.90;;
21258;SDS011;10787;53.364;-1.480;2024-01-25T14:03:54;10.50;;;5.60;;
21258;SDS011;10787;53.364;-1.480;2024-01-25T14:06:39;7.50;;;5.73;;
21258;SDS011;10787;53.364;-1.480;2024-01-25T14:09:23;11.27;;;6.53;;
21258;SDS011;10787;53.364;-1.480;2024-01-25T14:12:07;9.03;;;5.97;;
21258;SDS011;10787;53.364;-1.480;2024-01-25T14:14:51;9.93;;;5.37;;
21258;SDS011;10787;53.364;-1.480;2024-01-25T14:17:36;10.67;;;5.80;;
21258;SDS011;10787;53.364;-1.480;2024-01-25T14:20:21;7.80;;;5.73;;
21258;SDS011;10787;53.364;-1.480;2024-01-25T14:23:06;6.50;;;5.00;;
21258;SDS011;10787;53.364;-1.480;2024-01-25T14:25:51;8.73;;;6.27;;
21258;SDS011;10787;53.364;-1.480;2024-01-25T14:28:35;6.03;;;4.60;;
21258;SDS011;10787;53.364;-1.480;2024-01-25T14:31:20;6.37;;;4.37;;
21258;SDS011;10787;53.364;-1.480;2024-01-25T14:34:04;8.43;;;4.53;;
21258;SDS011;10787;53.364;-1.480;2024-01-25T14:36:48;8.53;;;4.07;;
21258;SDS011;10787;53.364;-1.480;2024-01-25T14:39:35;9.30;;;5.23;;
21258;SDS011;10787;53.364;-1.480;2024-01-25T14:42:21;10.53;;;5.40;;
21258;SDS011;10787;53.364;-1.480;2024-01-25T14:45:05;6.13;;;4.60;;
21258;SDS011;10787;53.364;-1.480;2024-01-25T14:47:50;7.40;;;4.43;;
21258;SDS011;10787;53.364;-1.480;2024-01-25T14:50:34;7.60;;;4.57;;
21258;SDS011;10787;53.364;-1.480;2024-01-25T14:53:18;6.57;;;4.50;;
21258;SDS011;10787;53.364;-1.480;2024-01-25T14:56:02;5.93;;;4.60;;
21258;SDS011;10787;53.364;-1.480;2024-01-25T14:58:47;8.60;;;5.73;;
21258;SDS011;10787;53.364;-1.480;2024-01-25T15:01:31;7.57;;;4.90;;
21258;SDS011;10787;53.364;-1.480;2024-01-25T15:04:16;8.67;;;5.63;;
21258;SDS011;10787;53.364;-1.480;2024-01-25T15:07:01;8.33;;;5.80;;
21258;SDS011;10787;53.364;-1.480;2024-01-25T15:09:45;9.07;;;5.07;;
21258;SDS011;10787;53.364;-1.480;2024-01-25T15:12:30;7.10;;;4.63;;
21258;SDS011;10787;53.364;-1.480;2024-01-25T15:15:14;8.20;;;4.60;;
21258;SDS011;10787;53.364;-1.480;2024-01-25T15:17:58;6.57;;;4.60;;
21258;SDS011;10787;53.364;-1.480;2024-01-25T15:20:43;5.77;;;4.30;;
21258;SDS011;10787;53.364;-1.480;2024-01-25T15:23:27;7.13;;;4.30;;
21258;SDS011;10787;53.364;-1.480;2024-01-25T15:26:12;8.93;;;4.60;;
21258;SDS011;10787;53.364;-1.480;2024-01-25T15:28:57;9.13;;;4.70;;
21258;SDS011;10787;53.364;-1.480;2024-01-25T15:31:40;7.63;;;5.00;;
21258;SDS011;10787;53.364;-1.480;2024-01-25T15:34:25;8.00;;;4.93;;
21258;SDS011;10787;53.364;-1.480;2024-01-25T15:37:09;7.60;;;4.57;;
21258;SDS011;10787;53.364;-1.480;2024-01-25T15:39:53;5.30;;;4.37;;
21258;SDS011;10787;53.364;-1.480;2024-01-25T15:42:39;5.97;;;4.50;;
21258;SDS011;10787;53.364;-1.480;2024-01-25T15:45:23;6.63;;;4.37;;
21258;SDS011;10787;53.364;-1.480;2024-01-25T15:48:07;7.20;;;4.30;;
21258;SDS011;10787;53.364;-1.480;2024-01-25T15:50:52;5.60;;;4.10;;
21258;SDS011;10787;53.364;-1.480;2024-01-25T15:53:36;6.57;;;4.50;;
21258;SDS011;10787;53.364;-1.480;2024-01-25T15:56:20;6.13;;;4.53;;
21258;SDS011;10787;53.364;-1.480;2024-01-25T15:59:05;7.73;;;4.57;;
21258;SDS011;10787;53.364;-1.480;2024-01-25T16:01:49;5.40;;;4.70;;
21258;SDS011;10787;53.364;-1.480;2024-01-25T16:04:33;6.63;;;4.37;;